createdAt,value
2022-11-05T00:00:17.548Z,7.70
2022-11-05T00:03:03.464Z,7.53
2022-11-05T00:05:49.817Z,7.72
2022-11-05T00:08:35.625Z,6.97
2022-11-05T00:11:02.828Z,6.32
2022-11-05T00:13:48.461Z,8.00
2022-11-05T00:16:34.026Z,7.28
2022-11-05T00:19:10.254Z,7.75
2022-11-05T00:21:57.152Z,7.78
2022-11-05T00:24:43.942Z,7.20
2022-11-05T00:27:11.520Z,7.20
2022-11-05T00:29:38.631Z,7.80
2022-11-05T00:32:05.824Z,7.60
2022-11-05T00:34:33.120Z,7.28
2022-11-05T00:37:00.209Z,9.23
2022-11-05T00:39:27.313Z,7.45
2022-11-05T00:42:12.905Z,47.60
2022-11-05T00:44:58.369Z,31.30
2022-11-05T00:47:43.834Z,14.27
2022-11-05T00:50:11.778Z,11.85
2022-11-05T00:52:57.647Z,10.23
2022-11-05T00:55:43.257Z,9.55
2022-11-05T00:58:21.398Z,7.93
2022-11-05T01:00:54.070Z,8.57
2022-11-05T01:03:27.814Z,7.28
2022-11-05T01:05:57.389Z,6.72
2022-11-05T01:08:27.179Z,6.97
2022-11-05T01:10:56.620Z,7.82
2022-11-05T01:13:27.171Z,7.28
2022-11-05T01:15:55.292Z,8.02
2022-11-05T01:18:24.093Z,7.53
2022-11-05T01:20:51.670Z,6.35
2022-11-05T01:23:19.080Z,7.10
2022-11-05T01:25:46.605Z,8.60
2022-11-05T01:28:13.706Z,6.53
2022-11-05T01:30:40.878Z,5.78
2022-11-05T01:33:08.343Z,6.05
2022-11-05T01:35:35.769Z,5.90
2022-11-05T01:38:02.869Z,6.53
2022-11-05T01:40:30.054Z,6.68
2022-11-05T01:42:57.132Z,6.13
2022-11-05T01:45:26.921Z,6.20
2022-11-05T01:48:14.214Z,5.53
2022-11-05T01:51:02.631Z,5.90
2022-11-05T01:53:47.493Z,4.85
2022-11-05T01:56:22.820Z,4.97
2022-11-05T01:59:13.369Z,4.57
2022-11-05T02:01:40.725Z,4.00
2022-11-05T02:04:13.694Z,5.25
2022-11-05T02:06:46.714Z,4.78
2022-11-05T02:09:22.282Z,6.40
2022-11-05T02:11:51.138Z,4.40
2022-11-05T02:14:18.821Z,4.50
2022-11-05T02:16:59.514Z,4.05
2022-11-05T02:19:35.887Z,3.97
2022-11-05T02:22:15.959Z,3.92
2022-11-05T02:24:55.151Z,4.13
2022-11-05T02:27:44.053Z,3.63
2022-11-05T02:30:33.213Z,4.13
2022-11-05T02:33:36.176Z,3.70
2022-11-05T02:36:24.930Z,3.20
2022-11-05T02:39:17.017Z,3.25
2022-11-05T02:42:15.276Z,2.83
2022-11-05T02:44:56.778Z,3.15
2022-11-05T02:47:36.076Z,2.80
2022-11-05T02:50:27.015Z,2.63
2022-11-05T02:53:14.426Z,3.20
2022-11-05T02:55:50.239Z,2.30
2022-11-05T02:58:17.345Z,2.40
2022-11-05T03:00:50.559Z,2.58
2022-11-05T03:03:29.159Z,2.10
2022-11-05T03:06:24.114Z,2.60
2022-11-05T03:09:04.890Z,2.60
2022-11-05T03:11:41.305Z,2.70
2022-11-05T03:14:46.762Z,3.30
2022-11-05T03:17:23.623Z,2.80
2022-11-05T03:20:08.685Z,2.08
2022-11-05T03:22:41.536Z,2.30
2022-11-05T03:25:13.653Z,2.55
2022-11-05T03:27:46.240Z,3.17
2022-11-05T03:30:15.832Z,3.45
2022-11-05T03:32:51.230Z,3.05
2022-11-05T03:35:23.841Z,2.63
2022-11-05T03:37:57.642Z,3.05
2022-11-05T03:40:26.427Z,3.42
2022-11-05T03:42:58.162Z,2.67
2022-11-05T03:45:30.901Z,3.25
2022-11-05T03:48:00.878Z,2.90
2022-11-05T03:50:41.447Z,2.58
2022-11-05T03:53:17.626Z,2.72
2022-11-05T03:56:11.417Z,3.60
2022-11-05T03:58:43.864Z,3.45
2022-11-05T04:01:12.390Z,2.38
2022-11-05T04:03:39.486Z,2.92
2022-11-05T04:06:27.301Z,3.03
2022-11-05T04:09:13.915Z,3.17
2022-11-05T04:11:59.834Z,2.90
2022-11-05T04:14:27.063Z,3.13
2022-11-05T04:17:12.042Z,2.65
2022-11-05T04:19:59.686Z,2.60
2022-11-05T04:22:47.750Z,2.40
2022-11-05T04:25:16.163Z,2.80
2022-11-05T04:27:43.601Z,2.92
2022-11-05T04:30:21.833Z,2.80
2022-11-05T04:32:56.978Z,3.00
2022-11-05T04:35:24.239Z,2.22
2022-11-05T04:37:51.497Z,2.22
2022-11-05T04:40:18.658Z,2.70
2022-11-05T04:42:45.843Z,2.90
2022-11-05T04:45:13.014Z,3.25
2022-11-05T04:47:40.161Z,2.92
2022-11-05T04:50:09.018Z,3.55
2022-11-05T04:52:36.387Z,2.83
2022-11-05T04:55:04.008Z,3.10
2022-11-05T04:57:31.163Z,3.63
2022-11-05T04:59:58.298Z,3.45
2022-11-05T05:02:25.410Z,3.80
2022-11-05T05:04:52.542Z,3.00
2022-11-05T05:07:19.649Z,3.00
2022-11-05T05:09:46.701Z,2.80
2022-11-05T05:12:13.914Z,2.20
2022-11-05T05:14:41.292Z,3.45
2022-11-05T05:17:08.364Z,2.60
2022-11-05T05:19:55.561Z,3.95
2022-11-05T05:22:22.710Z,3.10
2022-11-05T05:24:52.793Z,4.07
2022-11-05T05:27:20.727Z,3.30
2022-11-05T05:29:47.772Z,3.22
2022-11-05T05:32:14.957Z,3.72
2022-11-05T05:34:42.202Z,3.47
2022-11-05T05:37:09.322Z,2.78
2022-11-05T05:39:36.479Z,2.92
2022-11-05T05:42:03.691Z,2.42
2022-11-05T05:44:30.755Z,2.65
2022-11-05T05:46:57.814Z,2.72
2022-11-05T05:49:24.873Z,3.28
2022-11-05T05:51:51.900Z,2.53
2022-11-05T05:54:19.022Z,2.30
2022-11-05T05:56:46.352Z,2.65
2022-11-05T05:59:13.523Z,3.22
2022-11-05T06:01:41.006Z,2.70
2022-11-05T06:04:10.310Z,2.90
2022-11-05T06:06:37.442Z,2.28
2022-11-05T06:09:04.517Z,2.97
2022-11-05T06:11:31.953Z,2.00
2022-11-05T06:13:59.084Z,2.22
2022-11-05T06:16:26.204Z,3.53
2022-11-05T06:18:53.252Z,2.50
2022-11-05T06:21:20.566Z,1.98
2022-11-05T06:23:49.146Z,2.58
2022-11-05T06:26:18.082Z,1.70
2022-11-05T06:28:46.212Z,2.25
2022-11-05T06:31:14.696Z,1.95
2022-11-05T06:33:41.959Z,1.98
2022-11-05T06:36:14.414Z,2.08
2022-11-05T06:38:41.622Z,2.00
2022-11-05T06:41:10.574Z,1.73
2022-11-05T06:43:38.654Z,1.88
2022-11-05T06:46:06.544Z,1.63
2022-11-05T06:48:33.906Z,1.60
2022-11-05T06:51:01.113Z,1.15
2022-11-05T06:53:28.584Z,1.88
2022-11-05T06:55:55.777Z,1.38
2022-11-05T06:58:22.970Z,2.40
2022-11-05T07:00:50.204Z,1.10
2022-11-05T07:03:17.413Z,1.38
2022-11-05T07:05:48.261Z,1.00
2022-11-05T07:08:16.277Z,1.60
2022-11-05T07:10:43.548Z,1.30
2022-11-05T07:13:11.133Z,1.23
2022-11-05T07:15:38.664Z,1.52
2022-11-05T07:18:07.601Z,1.88
2022-11-05T07:20:34.960Z,1.60
2022-11-05T07:23:04.388Z,2.28
2022-11-05T07:25:33.324Z,1.90
2022-11-05T07:28:00.807Z,1.83
2022-11-05T07:30:29.082Z,2.15
2022-11-05T07:32:56.510Z,1.23
2022-11-05T07:35:23.776Z,1.77
2022-11-05T07:37:54.139Z,1.75
2022-11-05T07:40:23.038Z,1.88
2022-11-05T07:42:52.729Z,1.17
2022-11-05T07:45:20.889Z,1.60
2022-11-05T07:47:53.683Z,1.30
2022-11-05T07:50:23.439Z,1.55
2022-11-05T07:52:51.071Z,1.13
2022-11-05T07:55:19.775Z,1.38
2022-11-05T07:57:48.820Z,1.48
2022-11-05T08:00:18.612Z,1.40
2022-11-05T08:03:11.040Z,1.70
2022-11-05T08:05:40.509Z,1.58
2022-11-05T08:08:09.166Z,1.85
2022-11-05T08:10:37.734Z,1.52
2022-11-05T08:13:05.806Z,1.33
2022-11-05T08:15:33.847Z,1.15
2022-11-05T08:18:03.415Z,1.20
2022-11-05T08:20:31.612Z,1.27
2022-11-05T08:22:58.854Z,1.40
2022-11-05T08:25:26.490Z,1.20
2022-11-05T08:28:05.528Z,1.20
2022-11-05T08:30:33.163Z,1.80
2022-11-05T08:33:06.631Z,0.95
2022-11-05T08:35:35.240Z,1.55
2022-11-05T08:38:04.128Z,1.75
2022-11-05T08:40:33.127Z,1.50
2022-11-05T08:43:02.654Z,1.50
2022-11-05T08:45:30.583Z,1.20
2022-11-05T08:48:02.338Z,1.98
2022-11-05T08:50:29.869Z,1.83
2022-11-05T08:52:57.147Z,1.98
2022-11-05T08:55:25.070Z,1.42
2022-11-05T08:58:05.622Z,1.33
2022-11-05T09:00:35.368Z,1.40
2022-11-05T09:03:05.016Z,1.65
2022-11-05T09:05:38.180Z,1.38
2022-11-05T09:08:13.543Z,1.52
2022-11-05T09:10:41.361Z,1.38
2022-11-05T09:13:13.234Z,1.45
2022-11-05T09:15:45.256Z,2.03
2022-11-05T09:18:14.171Z,1.25
2022-11-05T09:20:41.894Z,1.75
2022-11-05T09:23:10.737Z,1.98
2022-11-05T09:25:38.133Z,2.25
2022-11-05T09:28:07.933Z,3.08
2022-11-05T09:30:35.141Z,1.73
2022-11-05T09:33:02.524Z,1.90
2022-11-05T09:35:30.090Z,1.63
2022-11-05T09:38:00.941Z,1.50
2022-11-05T09:40:31.427Z,1.30
2022-11-05T09:42:59.933Z,1.92
2022-11-05T09:45:30.249Z,2.08
2022-11-05T09:48:00.758Z,1.92
2022-11-05T09:50:33.685Z,2.03
2022-11-05T09:53:01.877Z,1.75
2022-11-05T09:55:30.624Z,1.60
2022-11-05T09:58:01.026Z,1.98
2022-11-05T10:00:30.034Z,2.30
2022-11-05T10:03:03.363Z,1.45
2022-11-05T10:05:32.715Z,2.80
2022-11-05T10:08:05.130Z,2.20
2022-11-05T10:11:03.803Z,1.40
2022-11-05T10:13:37.248Z,1.35
2022-11-05T10:16:12.009Z,1.27
2022-11-05T10:18:44.872Z,1.48
2022-11-05T10:21:27.777Z,1.52
2022-11-05T10:24:18.697Z,1.80
2022-11-05T10:26:54.391Z,1.40
2022-11-05T10:29:33.652Z,1.65
2022-11-05T10:32:05.691Z,1.55
2022-11-05T10:34:36.522Z,1.60
2022-11-05T10:37:04.368Z,1.52
2022-11-05T10:39:33.353Z,1.30
2022-11-05T10:42:31.658Z,1.25
2022-11-05T10:45:07.772Z,1.00
2022-11-05T10:48:02.003Z,1.15
2022-11-05T10:50:30.336Z,1.15
2022-11-05T10:53:03.543Z,1.60
2022-11-05T10:55:33.549Z,0.85
2022-11-05T10:58:16.135Z,1.10
2022-11-05T11:00:45.305Z,1.30
2022-11-05T11:03:45.246Z,0.90
2022-11-05T11:06:18.833Z,1.65
2022-11-05T11:08:48.126Z,0.90
2022-11-05T11:11:40.614Z,2.03
2022-11-05T11:14:13.366Z,2.13
2022-11-05T11:16:46.098Z,1.70
2022-11-05T11:19:34.265Z,1.38
2022-11-05T11:22:04.427Z,2.05
2022-11-05T11:24:48.279Z,2.15
2022-11-05T11:27:20.565Z,2.05
2022-11-05T11:32:38.903Z,2.10
2022-11-05T11:35:09.182Z,2.20
2022-11-05T11:37:42.192Z,2.47
2022-11-05T11:40:19.451Z,1.70
2022-11-05T11:42:50.881Z,1.95
2022-11-05T11:45:30.008Z,1.85
2022-11-05T11:48:00.895Z,1.90
2022-11-05T11:50:31.260Z,2.72
2022-11-05T11:53:20.832Z,1.95
2022-11-05T11:56:21.631Z,3.03
2022-11-05T11:58:51.914Z,1.92
2022-11-05T12:01:43.648Z,2.05
2022-11-05T12:04:13.584Z,2.07
2022-11-05T12:06:56.089Z,4.03
2022-11-05T12:12:26.242Z,2.03
2022-11-05T12:15:02.834Z,1.90
2022-11-05T12:17:55.712Z,2.65
2022-11-05T12:23:18.071Z,2.25
2022-11-05T12:26:06.382Z,2.17
2022-11-05T12:29:19.189Z,2.47
2022-11-05T12:34:46.209Z,1.75
2022-11-05T12:37:28.865Z,1.92
2022-11-05T12:40:09.659Z,2.00
2022-11-05T12:42:52.434Z,2.25
2022-11-05T12:45:55.351Z,2.30
2022-11-05T12:51:29.151Z,2.53
2022-11-05T12:54:15.122Z,1.65
2022-11-05T12:56:47.078Z,2.92
2022-11-05T12:59:36.361Z,2.80
2022-11-05T13:02:42.029Z,2.72
2022-11-05T13:05:37.193Z,2.20
2022-11-05T13:08:36.611Z,2.70
2022-11-05T13:11:26.857Z,2.03
2022-11-05T13:14:09.142Z,2.10
2022-11-05T13:16:47.524Z,2.67
2022-11-05T13:19:37.469Z,3.28
2022-11-05T13:22:29.663Z,2.13
2022-11-05T13:25:01.053Z,3.10
2022-11-05T13:28:05.366Z,2.83
2022-11-05T13:30:38.211Z,2.05
2022-11-05T13:33:13.971Z,2.45
2022-11-05T13:36:23.734Z,2.30
2022-11-05T13:39:00.685Z,2.13
2022-11-05T13:42:05.695Z,2.50
2022-11-05T13:45:03.809Z,2.53
2022-11-05T13:47:40.519Z,2.55
2022-11-05T13:50:41.956Z,2.30
2022-11-05T13:53:43.837Z,1.85
2022-11-05T13:56:29.521Z,2.35
2022-11-05T13:59:16.360Z,2.40
2022-11-05T14:02:02.699Z,2.10
2022-11-05T14:04:36.701Z,2.75
2022-11-05T14:07:19.240Z,2.38
2022-11-05T14:12:27.021Z,2.70
2022-11-05T14:15:00.262Z,2.03
2022-11-05T14:17:28.626Z,1.90
2022-11-05T14:20:01.705Z,2.25
2022-11-05T14:22:28.773Z,2.60
2022-11-05T14:24:55.918Z,3.17
2022-11-05T14:27:23.073Z,2.25
2022-11-05T14:29:50.373Z,2.40
2022-11-05T14:32:17.467Z,1.63
2022-11-05T14:34:47.373Z,2.85
2022-11-05T14:37:24.732Z,2.30
2022-11-05T14:39:53.536Z,2.97
2022-11-05T14:42:28.668Z,2.92
2022-11-05T14:45:03.317Z,3.00
2022-11-05T14:47:34.425Z,1.88
2022-11-05T14:50:11.649Z,2.60
2022-11-05T14:52:40.605Z,2.20
2022-11-05T14:55:27.071Z,3.10
2022-11-05T14:57:54.175Z,2.95
2022-11-05T15:00:31.295Z,3.00
2022-11-05T15:03:23.353Z,2.00
2022-11-05T15:05:52.399Z,2.42
2022-11-05T15:08:47.142Z,2.28
2022-11-05T15:11:30.305Z,1.42
2022-11-05T15:14:05.002Z,2.35
2022-11-05T15:16:44.857Z,2.78
2022-11-05T15:19:21.752Z,2.85
2022-11-05T15:21:50.895Z,3.53
2022-11-05T15:24:19.508Z,2.00
2022-11-05T15:27:04.404Z,3.30
2022-11-05T15:29:32.974Z,2.35
2022-11-05T15:32:00.511Z,2.28
2022-11-05T15:34:31.012Z,3.25
2022-11-05T15:37:01.504Z,3.75
2022-11-05T15:39:49.867Z,2.97
2022-11-05T15:42:23.017Z,2.67
2022-11-05T15:44:58.158Z,2.10
2022-11-05T15:47:34.276Z,2.15
2022-11-05T15:50:14.704Z,2.53
2022-11-05T15:52:51.778Z,3.15
2022-11-05T15:55:24.526Z,2.28
2022-11-05T15:58:04.890Z,2.05
2022-11-05T16:00:34.837Z,2.45
2022-11-05T16:03:06.527Z,2.67
2022-11-05T16:05:41.230Z,2.10
2022-11-05T16:08:16.776Z,2.30
2022-11-05T16:11:05.560Z,2.60
2022-11-05T16:13:34.400Z,2.10
2022-11-05T16:16:21.240Z,1.83
2022-11-05T16:18:48.777Z,1.90
2022-11-05T16:21:18.848Z,3.38
2022-11-05T16:23:54.386Z,3.58
2022-11-05T16:32:13.331Z,2.30
2022-11-05T16:34:49.127Z,2.03
2022-11-05T16:37:19.092Z,2.65
2022-11-05T16:39:48.561Z,2.95
2022-11-05T16:42:24.664Z,2.55
2022-11-05T16:44:53.608Z,3.65
2022-11-05T16:47:22.043Z,2.58
2022-11-05T16:49:49.641Z,2.50
2022-11-05T16:52:17.225Z,2.60
2022-11-05T16:54:44.788Z,2.03
2022-11-05T16:57:25.042Z,2.67
2022-11-05T16:59:52.517Z,2.10
2022-11-05T17:02:20.193Z,1.88
2022-11-05T17:04:48.634Z,1.48
2022-11-05T17:07:15.960Z,1.05
2022-11-05T17:09:43.330Z,1.98
2022-11-05T17:12:11.461Z,1.88
2022-11-05T17:14:38.597Z,1.75
2022-11-05T17:17:07.424Z,1.48
2022-11-05T17:19:34.790Z,1.80
2022-11-05T17:22:02.019Z,1.65
2022-11-05T17:24:29.226Z,2.13
2022-11-05T17:26:56.368Z,2.45
2022-11-05T17:29:23.510Z,2.00
2022-11-05T17:31:50.693Z,2.00
2022-11-05T17:34:17.934Z,2.30
2022-11-05T17:36:45.090Z,2.70
2022-11-05T17:39:12.931Z,2.95
2022-11-05T17:41:40.161Z,2.90
2022-11-05T17:44:07.232Z,2.47
2022-11-05T17:46:34.342Z,2.20
2022-11-05T17:49:01.566Z,2.28
2022-11-05T17:51:28.833Z,1.75
2022-11-05T17:53:56.111Z,2.10
2022-11-05T17:56:33.558Z,1.98
2022-11-05T17:59:03.390Z,2.70
2022-11-05T18:01:33.302Z,3.30
2022-11-05T18:04:07.295Z,2.47
2022-11-05T18:06:37.573Z,2.88
2022-11-05T18:09:06.498Z,3.13
2022-11-05T18:11:35.019Z,3.35
2022-11-05T18:14:02.635Z,3.88
2022-11-05T18:16:29.898Z,5.45
2022-11-05T18:18:57.153Z,4.88
2022-11-05T18:21:24.368Z,4.90
2022-11-05T18:23:51.704Z,4.38
2022-11-05T18:26:19.179Z,3.95
2022-11-05T18:28:46.730Z,5.35
2022-11-05T18:31:18.322Z,7.70
2022-11-05T18:33:46.495Z,6.95
2022-11-05T18:36:21.910Z,4.25
2022-11-05T18:38:50.133Z,7.55
2022-11-05T18:41:18.072Z,5.20
2022-11-05T18:43:45.188Z,6.85
2022-11-05T18:46:24.075Z,5.15
2022-11-05T18:49:00.299Z,6.35
2022-11-05T18:51:27.972Z,6.60
2022-11-05T18:53:56.015Z,10.55
2022-11-05T18:56:23.411Z,8.57
2022-11-05T18:59:08.421Z,5.80
2022-11-05T19:01:40.214Z,5.32
2022-11-05T19:04:07.475Z,6.00
2022-11-05T19:06:36.413Z,6.13
2022-11-05T19:09:05.050Z,5.22
2022-11-05T19:11:32.232Z,5.15
2022-11-05T19:13:59.458Z,5.75
2022-11-05T19:16:28.763Z,5.30
2022-11-05T19:18:59.677Z,4.82
2022-11-05T19:21:27.415Z,5.00
2022-11-05T19:23:57.388Z,8.13
2022-11-05T19:26:28.847Z,8.52
2022-11-05T19:29:01.804Z,5.72
2022-11-05T19:31:30.088Z,6.00
2022-11-05T19:33:57.943Z,5.28
2022-11-05T19:36:25.807Z,4.78
2022-11-05T19:39:04.166Z,4.38
2022-11-05T19:41:31.584Z,4.22
2022-11-05T19:43:59.695Z,7.07
2022-11-05T19:46:26.998Z,9.25
2022-11-05T19:48:54.699Z,11.27
2022-11-05T19:51:24.371Z,8.82
2022-11-05T19:53:52.917Z,7.85
2022-11-05T19:56:22.809Z,6.63
2022-11-05T19:58:50.431Z,7.43
2022-11-05T20:01:18.884Z,6.85
2022-11-05T20:03:46.185Z,6.68
2022-11-05T20:06:15.977Z,6.38
2022-11-05T20:09:07.063Z,7.40
2022-11-05T20:11:32.233Z,5.93
2022-11-05T20:13:59.442Z,5.47
2022-11-05T20:16:29.715Z,5.63
2022-11-05T20:18:57.696Z,5.80
2022-11-05T20:21:24.855Z,7.55
2022-11-05T20:23:52.044Z,8.05
2022-11-05T20:26:19.180Z,7.03
2022-11-05T20:28:46.388Z,5.68
2022-11-05T20:31:15.575Z,5.70
2022-11-05T20:33:44.045Z,21.70
2022-11-05T20:36:17.066Z,19.88
2022-11-05T20:38:48.824Z,7.53
2022-11-05T20:41:16.590Z,5.95
2022-11-05T20:43:44.087Z,4.43
2022-11-05T20:46:14.269Z,4.72
2022-11-05T20:48:42.000Z,3.90
2022-11-05T20:51:13.088Z,4.00
2022-11-05T20:53:40.227Z,4.35
2022-11-05T20:56:11.216Z,4.45
2022-11-05T20:58:38.790Z,3.30
2022-11-05T21:01:06.138Z,3.97
2022-11-05T21:03:34.412Z,3.83
2022-11-05T21:06:04.590Z,3.65
2022-11-05T21:08:32.962Z,4.20
2022-11-05T21:11:00.584Z,4.57
2022-11-05T21:13:28.639Z,4.20
2022-11-05T21:15:58.398Z,4.03
2022-11-05T21:18:29.621Z,3.95
2022-11-05T21:20:57.492Z,6.15
2022-11-05T21:23:24.601Z,5.15
2022-11-05T21:25:51.734Z,4.88
2022-11-05T21:28:18.870Z,3.58
2022-11-05T21:30:47.421Z,3.92
2022-11-05T21:33:16.153Z,4.13
2022-11-05T21:35:45.596Z,4.50
2022-11-05T21:38:14.892Z,3.63
2022-11-05T21:40:42.703Z,5.03
2022-11-05T21:43:10.231Z,5.43
2022-11-05T21:45:42.204Z,5.80
2022-11-05T21:48:10.260Z,5.57
2022-11-05T21:51:00.286Z,5.25
2022-11-05T21:53:46.787Z,6.75
2022-11-05T21:56:41.568Z,5.93
2022-11-05T21:59:32.959Z,5.00
2022-11-05T22:02:03.449Z,4.68
2022-11-05T22:04:33.703Z,4.78
2022-11-05T22:07:01.342Z,7.38
2022-11-05T22:09:28.664Z,6.65
2022-11-05T22:11:58.124Z,6.30
2022-11-05T22:14:25.338Z,7.22
2022-11-05T22:16:52.564Z,5.80
2022-11-05T22:19:21.532Z,6.80
2022-11-05T22:21:49.574Z,5.75
2022-11-05T22:24:16.916Z,6.65
2022-11-05T22:26:44.912Z,6.82
2022-11-05T22:29:12.949Z,5.95
2022-11-05T22:31:40.391Z,5.45
2022-11-05T22:34:08.196Z,4.28
2022-11-05T22:36:35.954Z,4.68
2022-11-05T22:39:04.781Z,3.65
2022-11-05T22:41:32.066Z,4.30
2022-11-05T22:43:59.273Z,4.68
2022-11-05T22:46:27.487Z,4.43
2022-11-05T22:48:56.038Z,3.97
2022-11-05T22:51:31.678Z,3.50
2022-11-05T22:53:59.332Z,3.70
2022-11-05T22:56:29.176Z,3.60
2022-11-05T22:58:56.824Z,3.40
2022-11-05T23:01:24.886Z,3.10
2022-11-05T23:03:53.872Z,2.42
2022-11-05T23:06:41.932Z,2.55
2022-11-05T23:09:38.830Z,1.48
2022-11-05T23:12:09.323Z,1.35
2022-11-05T23:14:36.812Z,1.08
2022-11-05T23:17:22.911Z,1.70
2022-11-05T23:20:09.026Z,1.00
2022-11-05T23:22:54.477Z,1.00
2022-11-05T23:25:23.493Z,1.00
2022-11-05T23:27:53.513Z,0.80
2022-11-05T23:30:23.479Z,0.70
2022-11-05T23:32:51.610Z,0.40
2022-11-05T23:35:39.531Z,0.73
2022-11-05T23:38:25.059Z,0.70
2022-11-05T23:41:10.625Z,0.98
2022-11-05T23:43:56.319Z,0.90
2022-11-05T23:46:46.521Z,0.90
2022-11-05T23:49:13.753Z,0.85
2022-11-05T23:51:40.856Z,1.05
2022-11-05T23:54:07.942Z,0.65
2022-11-05T23:56:35.010Z,0.60
2022-11-05T23:59:02.410Z,0.52
